sensor_id;sensor_type;location;lat;lon;timestamp;P1;durP1;ratioP1;P2;durP2;ratioP2
65769;SDS011;52512;47.650;8.578;2022-09-12T00:00:48;1.97;;;1.43;;
65769;SDS011;52512;47.650;8.578;2022-09-12T00:03:14;10.23;;;1.40;;
65769;SDS011;52512;47.650;8.578;2022-09-12T00:05:44;1.77;;;1.67;;
65769;SDS011;52512;47.650;8.578;2022-09-12T00:08:11;7.17;;;1.50;;
65769;SDS011;52512;47.650;8.578;2022-09-12T00:10:40;3.27;;;1.63;;
65769;SDS011;52512;47.650;8.578;2022-09-12T00:13:07;1.83;;;1.73;;
65769;SDS011;52512;47.650;8.578;2022-09-12T00:15:37;7.23;;;1.30;;
65769;SDS011;52512;47.650;8.578;2022-09-12T00:18:04;4.80;;;1.80;;
65769;SDS011;52512;47.650;8.578;2022-09-12T00:20:30;1.43;;;1.33;;
65769;SDS011;52512;47.650;8.578;2022-09-12T00:22:56;1.57;;;1.20;;
65769;SDS011;52512;47.650;8.578;2022-09-12T00:25:22;5.60;;;1.20;;
65769;SDS011;52512;47.650;8.578;2022-09-12T00:27:47;15.67;;;1.73;;
65769;SDS011;52512;47.650;8.578;2022-09-12T00:30:13;1.70;;;1.60;;
65769;SDS011;52512;47.650;8.578;2022-09-12T00:32:38;6.67;;;1.30;;
65769;SDS011;52512;47.650;8.578;2022-09-12T00:35:04;1.90;;;1.50;;
65769;SDS011;52512;47.650;8.578;2022-09-12T00:37:30;1.13;;;1.07;;
65769;SDS011;52512;47.650;8.578;2022-09-12T00:39:56;2.07;;;1.60;;
65769;SDS011;52512;47.650;8.578;2022-09-12T00:42:22;1.43;;;1.33;;
65769;SDS011;52512;47.650;8.578;2022-09-12T00:44:49;2.60;;;1.40;;
65769;SDS011;52512;47.650;8.578;2022-09-12T00:47:18;2.13;;;1.60;;
65769;SDS011;52512;47.650;8.578;2022-09-12T00:49:52;1.60;;;1.50;;
65769;SDS011;52512;47.650;8.578;2022-09-12T00:52:21;2.03;;;1.23;;
65769;SDS011;52512;47.650;8.578;2022-09-12T00:57:18;2.30;;;1.40;;
65769;SDS011;52512;47.650;8.578;2022-09-12T00:59:48;1.10;;;1.10;;
65769;SDS011;52512;47.650;8.578;2022-09-12T01:02:16;3.00;;;2.00;;
65769;SDS011;52512;47.650;8.578;2022-09-12T01:04:43;1.63;;;1.53;;
65769;SDS011;52512;47.650;8.578;2022-09-12T01:07:09;1.70;;;1.60;;
65769;SDS011;52512;47.650;8.578;2022-09-12T01:09:36;27.48;;;1.77;;
65769;SDS011;52512;47.650;8.578;2022-09-12T01:12:03;2.35;;;1.67;;
65769;SDS011;52512;47.650;8.578;2022-09-12T01:14:29;1.40;;;1.30;;
65769;SDS011;52512;47.650;8.578;2022-09-12T01:16:56;3.33;;;1.30;;
65769;SDS011;52512;47.650;8.578;2022-09-12T01:22:17;3.40;;;1.90;;
65769;SDS011;52512;47.650;8.578;2022-09-12T01:24:52;1.80;;;1.70;;
65769;SDS011;52512;47.650;8.578;2022-09-12T01:33:43;8.17;;;1.40;;
65769;SDS011;52512;47.650;8.578;2022-09-12T01:44:35;3.97;;;1.47;;
65769;SDS011;52512;47.650;8.578;2022-09-12T01:47:18;2.47;;;1.65;;
65769;SDS011;52512;47.650;8.578;2022-09-12T01:49:59;3.72;;;1.90;;
65769;SDS011;52512;47.650;8.578;2022-09-12T01:52:41;2.10;;;2.00;;
65769;SDS011;52512;47.650;8.578;2022-09-12T01:55:26;3.07;;;1.60;;
65769;SDS011;52512;47.650;8.578;2022-09-12T01:58:08;1.60;;;1.50;;
65769;SDS011;52512;47.650;8.578;2022-09-12T02:00:46;1.58;;;1.48;;
65769;SDS011;52512;47.650;8.578;2022-09-12T02:03:23;1.80;;;1.70;;
65769;SDS011;52512;47.650;8.578;2022-09-12T02:05:59;4.75;;;1.58;;
65769;SDS011;52512;47.650;8.578;2022-09-12T02:08:31;1.40;;;1.40;;
65769;SDS011;52512;47.650;8.578;2022-09-12T02:11:04;2.55;;;1.85;;
65769;SDS011;52512;47.650;8.578;2022-09-12T02:13:34;1.30;;;1.25;;
65769;SDS011;52512;47.650;8.578;2022-09-12T02:16:07;2.00;;;1.77;;
65769;SDS011;52512;47.650;8.578;2022-09-12T02:18:36;3.33;;;1.80;;
65769;SDS011;52512;47.650;8.578;2022-09-12T02:21:04;2.00;;;1.50;;
65769;SDS011;52512;47.650;8.578;2022-09-12T02:23:31;1.60;;;1.50;;
65769;SDS011;52512;47.650;8.578;2022-09-12T02:26:00;5.25;;;1.75;;
65769;SDS011;52512;47.650;8.578;2022-09-12T02:28:34;2.15;;;2.05;;
65769;SDS011;52512;47.650;8.578;2022-09-12T02:33:43;1.35;;;1.20;;
65769;SDS011;52512;47.650;8.578;2022-09-12T02:39:40;7.13;;;1.52;;
65769;SDS011;52512;47.650;8.578;2022-09-12T02:42:06;5.53;;;1.80;;
65769;SDS011;52512;47.650;8.578;2022-09-12T02:44:31;5.33;;;1.70;;
65769;SDS011;52512;47.650;8.578;2022-09-12T02:47:02;1.73;;;1.63;;
65769;SDS011;52512;47.650;8.578;2022-09-12T02:49:31;9.43;;;1.65;;
65769;SDS011;52512;47.650;8.578;2022-09-12T02:51:58;8.23;;;1.50;;
65769;SDS011;52512;47.650;8.578;2022-09-12T02:54:25;1.50;;;1.40;;
65769;SDS011;52512;47.650;8.578;2022-09-12T02:56:51;1.70;;;1.60;;
65769;SDS011;52512;47.650;8.578;2022-09-12T02:59:18;4.10;;;1.93;;
65769;SDS011;52512;47.650;8.578;2022-09-12T03:02:03;2.60;;;1.85;;
65769;SDS011;52512;47.650;8.578;2022-09-12T03:07:12;19.17;;;2.58;;
65769;SDS011;52512;47.650;8.578;2022-09-12T03:20:40;1.50;;;1.40;;
65769;SDS011;52512;47.650;8.578;2022-09-12T03:26:02;1.40;;;1.30;;
65769;SDS011;52512;47.650;8.578;2022-09-12T03:28:39;1.95;;;1.48;;
65769;SDS011;52512;47.650;8.578;2022-09-12T03:31:13;2.05;;;1.45;;
65769;SDS011;52512;47.650;8.578;2022-09-12T03:33:40;3.45;;;1.48;;
65769;SDS011;52512;47.650;8.578;2022-09-12T03:36:10;1.23;;;1.23;;
65769;SDS011;52512;47.650;8.578;2022-09-12T03:38:45;1.65;;;1.55;;
65769;SDS011;52512;47.650;8.578;2022-09-12T03:41:11;2.97;;;1.93;;
65769;SDS011;52512;47.650;8.578;2022-09-12T03:43:37;2.60;;;1.40;;
65769;SDS011;52512;47.650;8.578;2022-09-12T03:46:03;1.23;;;1.20;;
65769;SDS011;52512;47.650;8.578;2022-09-12T03:48:28;1.50;;;1.40;;
65769;SDS011;52512;47.650;8.578;2022-09-12T03:50:58;1.50;;;1.40;;
65769;SDS011;52512;47.650;8.578;2022-09-12T03:53:28;2.10;;;1.90;;
65769;SDS011;52512;47.650;8.578;2022-09-12T03:55:54;5.38;;;2.05;;
65769;SDS011;52512;47.650;8.578;2022-09-12T03:58:20;1.90;;;1.80;;
65769;SDS011;52512;47.650;8.578;2022-09-12T04:00:46;1.50;;;1.40;;
65769;SDS011;52512;47.650;8.578;2022-09-12T04:03:12;1.30;;;1.23;;
65769;SDS011;52512;47.650;8.578;2022-09-12T04:05:38;4.20;;;3.90;;
65769;SDS011;52512;47.650;8.578;2022-09-12T04:08:03;1.40;;;1.30;;
65769;SDS011;52512;47.650;8.578;2022-09-12T04:10:30;7.80;;;1.40;;
65769;SDS011;52512;47.650;8.578;2022-09-12T04:12:55;2.75;;;1.60;;
65769;SDS011;52512;47.650;8.578;2022-09-12T04:15:22;2.10;;;1.70;;
65769;SDS011;52512;47.650;8.578;2022-09-12T04:17:48;1.70;;;1.55;;
65769;SDS011;52512;47.650;8.578;2022-09-12T04:20:13;6.13;;;1.80;;
65769;SDS011;52512;47.650;8.578;2022-09-12T04:22:39;27.63;;;2.43;;
65769;SDS011;52512;47.650;8.578;2022-09-12T04:25:05;1.67;;;1.57;;
65769;SDS011;52512;47.650;8.578;2022-09-12T04:27:31;2.15;;;1.98;;
65769;SDS011;52512;47.650;8.578;2022-09-12T04:29:57;1.60;;;1.50;;
65769;SDS011;52512;47.650;8.578;2022-09-12T04:32:24;2.03;;;1.77;;
65769;SDS011;52512;47.650;8.578;2022-09-12T04:34:50;2.30;;;1.70;;
65769;SDS011;52512;47.650;8.578;2022-09-12T04:37:16;1.88;;;1.77;;
65769;SDS011;52512;47.650;8.578;2022-09-12T04:39:42;1.48;;;1.38;;
65769;SDS011;52512;47.650;8.578;2022-09-12T04:42:08;1.83;;;1.73;;
65769;SDS011;52512;47.650;8.578;2022-09-12T04:44:35;13.90;;;1.95;;
65769;SDS011;52512;47.650;8.578;2022-09-12T04:47:01;1.73;;;1.63;;
65769;SDS011;52512;47.650;8.578;2022-09-12T04:49:27;1.60;;;1.50;;
65769;SDS011;52512;47.650;8.578;2022-09-12T04:51:53;1.70;;;1.60;;
65769;SDS011;52512;47.650;8.578;2022-09-12T04:54:21;1.77;;;1.67;;
65769;SDS011;52512;47.650;8.578;2022-09-12T04:56:48;1.60;;;1.50;;
65769;SDS011;52512;47.650;8.578;2022-09-12T04:59:14;2.17;;;1.55;;
65769;SDS011;52512;47.650;8.578;2022-09-12T05:01:42;2.65;;;2.03;;
65769;SDS011;52512;47.650;8.578;2022-09-12T05:04:08;2.50;;;2.13;;
65769;SDS011;52512;47.650;8.578;2022-09-12T05:06:35;3.50;;;2.10;;
65769;SDS011;52512;47.650;8.578;2022-09-12T05:09:02;5.68;;;1.70;;
65769;SDS011;52512;47.650;8.578;2022-09-12T05:11:30;2.08;;;1.92;;
65769;SDS011;52512;47.650;8.578;2022-09-12T05:13:57;2.90;;;1.85;;
65769;SDS011;52512;47.650;8.578;2022-09-12T05:16:24;3.33;;;2.30;;
65769;SDS011;52512;47.650;8.578;2022-09-12T05:18:51;1.98;;;1.73;;
65769;SDS011;52512;47.650;8.578;2022-09-12T05:21:18;2.03;;;1.92;;
65769;SDS011;52512;47.650;8.578;2022-09-12T05:23:45;1.80;;;1.70;;
65769;SDS011;52512;47.650;8.578;2022-09-12T05:26:14;1.75;;;1.65;;
65769;SDS011;52512;47.650;8.578;2022-09-12T05:28:41;4.57;;;2.13;;
65769;SDS011;52512;47.650;8.578;2022-09-12T05:31:09;1.50;;;1.40;;
65769;SDS011;52512;47.650;8.578;2022-09-12T05:33:38;2.80;;;2.17;;
65769;SDS011;52512;47.650;8.578;2022-09-12T05:36:06;2.28;;;1.90;;
65769;SDS011;52512;47.650;8.578;2022-09-12T05:38:34;7.80;;;2.47;;
65769;SDS011;52512;47.650;8.578;2022-09-12T05:41:04;4.10;;;2.30;;
65769;SDS011;52512;47.650;8.578;2022-09-12T05:43:32;3.25;;;1.75;;
65769;SDS011;52512;47.650;8.578;2022-09-12T05:46:09;4.93;;;1.67;;
65769;SDS011;52512;47.650;8.578;2022-09-12T05:48:37;2.65;;;2.03;;
65769;SDS011;52512;47.650;8.578;2022-09-12T05:51:06;4.30;;;2.10;;
65769;SDS011;52512;47.650;8.578;2022-09-12T05:53:37;4.72;;;2.10;;
65769;SDS011;52512;47.650;8.578;2022-09-12T05:56:05;1.88;;;1.77;;
65769;SDS011;52512;47.650;8.578;2022-09-12T05:58:35;6.55;;;1.67;;
65769;SDS011;52512;47.650;8.578;2022-09-12T06:01:03;3.00;;;2.20;;
65769;SDS011;52512;47.650;8.578;2022-09-12T06:03:32;1.80;;;1.70;;
65769;SDS011;52512;47.650;8.578;2022-09-12T06:06:02;2.60;;;2.35;;
65769;SDS011;52512;47.650;8.578;2022-09-12T06:08:30;4.50;;;1.92;;
65769;SDS011;52512;47.650;8.578;2022-09-12T06:11:03;7.53;;;2.25;;
65769;SDS011;52512;47.650;8.578;2022-09-12T06:13:33;4.85;;;2.58;;
65769;SDS011;52512;47.650;8.578;2022-09-12T06:16:03;2.38;;;2.17;;
65769;SDS011;52512;47.650;8.578;2022-09-12T06:18:30;2.60;;;2.40;;
65769;SDS011;52512;47.650;8.578;2022-09-12T06:20:56;2.67;;;2.22;;
65769;SDS011;52512;47.650;8.578;2022-09-12T06:23:26;2.42;;;2.08;;
65769;SDS011;52512;47.650;8.578;2022-09-12T06:25:51;2.47;;;2.03;;
65769;SDS011;52512;47.650;8.578;2022-09-12T06:28:17;4.30;;;2.87;;
65769;SDS011;52512;47.650;8.578;2022-09-12T06:30:43;3.00;;;2.08;;
65769;SDS011;52512;47.650;8.578;2022-09-12T06:33:09;2.80;;;2.20;;
65769;SDS011;52512;47.650;8.578;2022-09-12T06:35:35;8.93;;;2.07;;
65769;SDS011;52512;47.650;8.578;2022-09-12T06:38:02;3.63;;;2.30;;
65769;SDS011;52512;47.650;8.578;2022-09-12T06:40:28;2.40;;;2.20;;
65769;SDS011;52512;47.650;8.578;2022-09-12T06:42:54;6.10;;;2.30;;
65769;SDS011;52512;47.650;8.578;2022-09-12T06:45:20;2.60;;;1.60;;
65769;SDS011;52512;47.650;8.578;2022-09-12T06:47:46;3.08;;;2.50;;
65769;SDS011;52512;47.650;8.578;2022-09-12T06:50:12;4.27;;;3.83;;
65769;SDS011;52512;47.650;8.578;2022-09-12T06:52:38;5.53;;;3.17;;
65769;SDS011;52512;47.650;8.578;2022-09-12T06:55:03;3.10;;;2.53;;
65769;SDS011;52512;47.650;8.578;2022-09-12T06:57:30;4.90;;;2.95;;
65769;SDS011;52512;47.650;8.578;2022-09-12T06:59:56;5.13;;;3.55;;
65769;SDS011;52512;47.650;8.578;2022-09-12T07:02:23;5.80;;;3.70;;
65769;SDS011;52512;47.650;8.578;2022-09-12T07:04:49;5.50;;;3.00;;
65769;SDS011;52512;47.650;8.578;2022-09-12T07:07:15;11.27;;;4.40;;
65769;SDS011;52512;47.650;8.578;2022-09-12T07:09:41;4.90;;;3.10;;
65769;SDS011;52512;47.650;8.578;2022-09-12T07:12:07;7.43;;;4.63;;
65769;SDS011;52512;47.650;8.578;2022-09-12T07:14:33;10.57;;;5.37;;
65769;SDS011;52512;47.650;8.578;2022-09-12T07:16:58;6.73;;;4.30;;
65769;SDS011;52512;47.650;8.578;2022-09-12T07:19:24;10.50;;;5.73;;
65769;SDS011;52512;47.650;8.578;2022-09-12T07:21:49;7.80;;;3.90;;
65769;SDS011;52512;47.650;8.578;2022-09-12T07:24:15;6.30;;;4.63;;
65769;SDS011;52512;47.650;8.578;2022-09-12T07:26:41;4.13;;;3.43;;
65769;SDS011;52512;47.650;8.578;2022-09-12T07:29:07;11.37;;;5.80;;
65769;SDS011;52512;47.650;8.578;2022-09-12T07:31:38;7.13;;;4.65;;
65769;SDS011;52512;47.650;8.578;2022-09-12T07:34:04;5.90;;;4.07;;
65769;SDS011;52512;47.650;8.578;2022-09-12T07:36:30;6.88;;;3.25;;
65769;SDS011;52512;47.650;8.578;2022-09-12T07:38:56;4.00;;;3.27;;
65769;SDS011;52512;47.650;8.578;2022-09-12T07:41:23;6.65;;;4.07;;
65769;SDS011;52512;47.650;8.578;2022-09-12T07:43:54;7.38;;;4.82;;
65769;SDS011;52512;47.650;8.578;2022-09-12T07:46:21;15.57;;;4.90;;
65769;SDS011;52512;47.650;8.578;2022-09-12T07:48:48;7.72;;;4.22;;
65769;SDS011;52512;47.650;8.578;2022-09-12T07:51:17;6.03;;;4.13;;
65769;SDS011;52512;47.650;8.578;2022-09-12T07:53:44;8.43;;;4.43;;
65769;SDS011;52512;47.650;8.578;2022-09-12T07:56:10;9.15;;;5.78;;
65769;SDS011;52512;47.650;8.578;2022-09-12T07:58:37;7.20;;;4.07;;
65769;SDS011;52512;47.650;8.578;2022-09-12T08:01:08;7.72;;;3.63;;
65769;SDS011;52512;47.650;8.578;2022-09-12T08:03:41;11.73;;;4.60;;
65769;SDS011;52512;47.650;8.578;2022-09-12T08:06:10;10.40;;;5.40;;
65769;SDS011;52512;47.650;8.578;2022-09-12T08:08:45;6.93;;;4.67;;
65769;SDS011;52512;47.650;8.578;2022-09-12T08:11:13;6.80;;;5.20;;
65769;SDS011;52512;47.650;8.578;2022-09-12T08:13:41;6.68;;;4.78;;
65769;SDS011;52512;47.650;8.578;2022-09-12T08:16:08;5.68;;;3.75;;
65769;SDS011;52512;47.650;8.578;2022-09-12T08:18:39;6.60;;;4.40;;
65769;SDS011;52512;47.650;8.578;2022-09-12T08:21:07;6.05;;;4.57;;
65769;SDS011;52512;47.650;8.578;2022-09-12T08:23:37;5.57;;;4.27;;
65769;SDS011;52512;47.650;8.578;2022-09-12T08:26:04;9.37;;;4.23;;
65769;SDS011;52512;47.650;8.578;2022-09-12T08:28:30;15.80;;;6.63;;
65769;SDS011;52512;47.650;8.578;2022-09-12T08:31:01;10.25;;;5.60;;
65769;SDS011;52512;47.650;8.578;2022-09-12T08:33:29;7.13;;;4.13;;
65769;SDS011;52512;47.650;8.578;2022-09-12T08:36:40;11.65;;;6.07;;
65769;SDS011;52512;47.650;8.578;2022-09-12T08:38:49;9.65;;;6.45;;
65769;SDS011;52512;47.650;8.578;2022-09-12T08:49:22;7.13;;;5.05;;
65769;SDS011;52512;47.650;8.578;2022-09-12T08:51:53;8.48;;;5.60;;
65769;SDS011;52512;47.650;8.578;2022-09-12T08:54:25;6.85;;;5.20;;
65769;SDS011;52512;47.650;8.578;2022-09-12T08:56:55;8.07;;;5.55;;
65769;SDS011;52512;47.650;8.578;2022-09-12T08:59:41;11.27;;;5.77;;
65769;SDS011;52512;47.650;8.578;2022-09-12T09:08:25;13.70;;;5.30;;
65769;SDS011;52512;47.650;8.578;2022-09-12T09:15:53;7.23;;;3.57;;
65769;SDS011;52512;47.650;8.578;2022-09-12T09:18:30;5.70;;;3.87;;
65769;SDS011;52512;47.650;8.578;2022-09-12T09:21:01;3.87;;;3.00;;
65769;SDS011;52512;47.650;8.578;2022-09-12T09:23:43;5.80;;;3.80;;
65769;SDS011;52512;47.650;8.578;2022-09-12T09:26:14;4.87;;;3.47;;
65769;SDS011;52512;47.650;8.578;2022-09-12T09:29:01;4.77;;;3.00;;
65769;SDS011;52512;47.650;8.578;2022-09-12T09:31:40;7.57;;;3.53;;
65769;SDS011;52512;47.650;8.578;2022-09-12T09:34:19;5.33;;;3.50;;
65769;SDS011;52512;47.650;8.578;2022-09-12T09:36:59;3.40;;;2.87;;
65769;SDS011;52512;47.650;8.578;2022-09-12T09:42:43;4.37;;;3.40;;
65769;SDS011;52512;47.650;8.578;2022-09-12T09:45:21;3.50;;;3.20;;
65769;SDS011;52512;47.650;8.578;2022-09-12T09:47:53;5.87;;;3.60;;
65769;SDS011;52512;47.650;8.578;2022-09-12T09:50:24;6.47;;;3.40;;
65769;SDS011;52512;47.650;8.578;2022-09-12T09:52:50;4.57;;;2.97;;
65769;SDS011;52512;47.650;8.578;2022-09-12T09:55:19;2.63;;;2.40;;
65769;SDS011;52512;47.650;8.578;2022-09-12T09:57:49;2.83;;;2.57;;
65769;SDS011;52512;47.650;8.578;2022-09-12T10:05:27;3.13;;;2.77;;
65769;SDS011;52512;47.650;8.578;2022-09-12T10:07:53;6.30;;;2.77;;
65769;SDS011;52512;47.650;8.578;2022-09-12T10:10:19;4.13;;;2.50;;
65769;SDS011;52512;47.650;8.578;2022-09-12T10:12:47;7.10;;;3.40;;
65769;SDS011;52512;47.650;8.578;2022-09-12T10:17:46;3.70;;;2.97;;
65769;SDS011;52512;47.650;8.578;2022-09-12T10:20:33;2.17;;;2.07;;
65769;SDS011;52512;47.650;8.578;2022-09-12T10:25:55;4.30;;;2.27;;
65769;SDS011;52512;47.650;8.578;2022-09-12T10:28:39;2.70;;;1.63;;
65769;SDS011;52512;47.650;8.578;2022-09-12T10:31:08;1.87;;;1.77;;
65769;SDS011;52512;47.650;8.578;2022-09-12T10:33:47;1.30;;;1.20;;
65769;SDS011;52512;47.650;8.578;2022-09-12T10:36:20;1.80;;;1.70;;
65769;SDS011;52512;47.650;8.578;2022-09-12T10:38:48;2.83;;;1.83;;
65769;SDS011;52512;47.650;8.578;2022-09-12T10:41:16;1.70;;;1.60;;
65769;SDS011;52512;47.650;8.578;2022-09-12T10:43:43;3.13;;;2.00;;
65769;SDS011;52512;47.650;8.578;2022-09-12T10:48:50;1.43;;;1.33;;
65769;SDS011;52512;47.650;8.578;2022-09-12T10:51:36;2.80;;;1.67;;
65769;SDS011;52512;47.650;8.578;2022-09-12T10:54:02;1.60;;;1.50;;
65769;SDS011;52512;47.650;8.578;2022-09-12T10:56:33;2.30;;;1.50;;
65769;SDS011;52512;47.650;8.578;2022-09-12T11:01:39;1.37;;;1.27;;
65769;SDS011;52512;47.650;8.578;2022-09-12T11:09:32;2.00;;;1.90;;
65769;SDS011;52512;47.650;8.578;2022-09-12T11:17:32;2.20;;;2.00;;
65769;SDS011;52512;47.650;8.578;2022-09-12T11:23:43;1.60;;;1.50;;
65769;SDS011;52512;47.650;8.578;2022-09-12T11:39:51;1.53;;;1.47;;
65769;SDS011;52512;47.650;8.578;2022-09-12T11:42:30;1.63;;;1.50;;
65769;SDS011;52512;47.650;8.578;2022-09-12T11:45:08;1.93;;;1.70;;
65769;SDS011;52512;47.650;8.578;2022-09-12T11:47:39;5.60;;;1.70;;
65769;SDS011;52512;47.650;8.578;2022-09-12T11:50:19;2.20;;;1.53;;
65769;SDS011;52512;47.650;8.578;2022-09-12T11:52:50;1.37;;;1.27;;
65769;SDS011;52512;47.650;8.578;2022-09-12T11:55:18;1.50;;;1.40;;
65769;SDS011;52512;47.650;8.578;2022-09-12T11:57:55;1.63;;;1.53;;
65769;SDS011;52512;47.650;8.578;2022-09-12T12:00:23;1.60;;;1.43;;
65769;SDS011;52512;47.650;8.578;2022-09-12T12:05:25;1.33;;;1.23;;
65769;SDS011;52512;47.650;8.578;2022-09-12T12:07:58;1.40;;;1.30;;
65769;SDS011;52512;47.650;8.578;2022-09-12T12:10:32;1.40;;;1.30;;
65769;SDS011;52512;47.650;8.578;2022-09-12T12:13:01;1.87;;;1.33;;
65769;SDS011;52512;47.650;8.578;2022-09-12T12:15:32;1.80;;;1.20;;
65769;SDS011;52512;47.650;8.578;2022-09-12T12:18:07;3.53;;;1.27;;
65769;SDS011;52512;47.650;8.578;2022-09-12T12:20:44;1.50;;;1.40;;
65769;SDS011;52512;47.650;8.578;2022-09-12T12:23:23;1.43;;;0.90;;
65769;SDS011;52512;47.650;8.578;2022-09-12T12:25:53;1.00;;;1.00;;
65769;SDS011;52512;47.650;8.578;2022-09-12T12:31:10;12.23;;;1.60;;
65769;SDS011;52512;47.650;8.578;2022-09-12T12:36:33;0.83;;;0.83;;
65769;SDS011;52512;47.650;8.578;2022-09-12T12:42:00;5.50;;;1.00;;
65769;SDS011;52512;47.650;8.578;2022-09-12T12:47:16;1.10;;;1.00;;
65769;SDS011;52512;47.650;8.578;2022-09-12T12:52:45;1.27;;;1.17;;
65769;SDS011;52512;47.650;8.578;2022-09-12T12:56:04;5.13;;;1.00;;
65769;SDS011;52512;47.650;8.578;2022-09-12T12:58:41;1.67;;;1.23;;
65769;SDS011;52512;47.650;8.578;2022-09-12T13:01:04;1.00;;;0.93;;
65769;SDS011;52512;47.650;8.578;2022-09-12T13:03:34;0.90;;;0.90;;
65769;SDS011;52512;47.650;8.578;2022-09-12T13:06:02;2.83;;;1.37;;
65769;SDS011;52512;47.650;8.578;2022-09-12T13:09:21;1.70;;;1.30;;
65769;SDS011;52512;47.650;8.578;2022-09-12T13:11:29;8.10;;;1.43;;
65769;SDS011;52512;47.650;8.578;2022-09-12T13:13:59;1.60;;;1.17;;
65769;SDS011;52512;47.650;8.578;2022-09-12T13:16:38;1.40;;;1.00;;
65769;SDS011;52512;47.650;8.578;2022-09-12T13:19:19;2.40;;;1.20;;
65769;SDS011;52512;47.650;8.578;2022-09-12T13:24:29;1.03;;;1.03;;
65769;SDS011;52512;47.650;8.578;2022-09-12T13:26:55;1.53;;;1.43;;
65769;SDS011;52512;47.650;8.578;2022-09-12T13:29:22;2.30;;;1.10;;
65769;SDS011;52512;47.650;8.578;2022-09-12T13:31:57;2.40;;;1.23;;
65769;SDS011;52512;47.650;8.578;2022-09-12T13:34:29;1.60;;;1.20;;
65769;SDS011;52512;47.650;8.578;2022-09-12T13:39:47;13.23;;;2.03;;
65769;SDS011;52512;47.650;8.578;2022-09-12T13:42:25;1.33;;;1.00;;
65769;SDS011;52512;47.650;8.578;2022-09-12T13:47:47;0.80;;;0.80;;
65769;SDS011;52512;47.650;8.578;2022-09-12T13:50:23;1.80;;;1.07;;
65769;SDS011;52512;47.650;8.578;2022-09-12T13:52:58;3.67;;;1.00;;
65769;SDS011;52512;47.650;8.578;2022-09-12T13:55:31;4.20;;;1.00;;
65769;SDS011;52512;47.650;8.578;2022-09-12T13:58:02;1.33;;;1.03;;
65769;SDS011;52512;47.650;8.578;2022-09-12T14:00:31;2.43;;;1.20;;
65769;SDS011;52512;47.650;8.578;2022-09-12T14:02:59;1.87;;;1.10;;
65769;SDS011;52512;47.650;8.578;2022-09-12T14:05:45;0.87;;;0.87;;
65769;SDS011;52512;47.650;8.578;2022-09-12T14:08:19;1.33;;;1.10;;
65769;SDS011;52512;47.650;8.578;2022-09-12T14:10:47;3.40;;;0.80;;
65769;SDS011;52512;47.650;8.578;2022-09-12T14:13:15;1.13;;;0.90;;
65769;SDS011;52512;47.650;8.578;2022-09-12T14:15:48;5.80;;;0.80;;
65769;SDS011;52512;47.650;8.578;2022-09-12T14:18:26;4.87;;;0.90;;
65769;SDS011;52512;47.650;8.578;2022-09-12T14:21:08;1.30;;;1.20;;
65769;SDS011;52512;47.650;8.578;2022-09-12T14:23:38;0.90;;;0.90;;
65769;SDS011;52512;47.650;8.578;2022-09-12T14:26:10;1.30;;;1.20;;
65769;SDS011;52512;47.650;8.578;2022-09-12T14:28:44;0.90;;;0.90;;
65769;SDS011;52512;47.650;8.578;2022-09-12T14:42:15;2.30;;;0.80;;
65769;SDS011;52512;47.650;8.578;2022-09-12T14:44:51;1.57;;;0.90;;
65769;SDS011;52512;47.650;8.578;2022-09-12T14:47:22;1.20;;;1.10;;
65769;SDS011;52512;47.650;8.578;2022-09-12T14:49:50;1.70;;;1.33;;
65769;SDS011;52512;47.650;8.578;2022-09-12T14:52:23;1.00;;;1.00;;
65769;SDS011;52512;47.650;8.578;2022-09-12T14:54:56;2.70;;;1.53;;
65769;SDS011;52512;47.650;8.578;2022-09-12T15:00:04;1.20;;;1.10;;
65769;SDS011;52512;47.650;8.578;2022-09-12T15:02:35;0.77;;;0.77;;
65769;SDS011;52512;47.650;8.578;2022-09-12T15:07:33;1.00;;;0.90;;
65769;SDS011;52512;47.650;8.578;2022-09-12T15:10:05;3.87;;;1.10;;
65769;SDS011;52512;47.650;8.578;2022-09-12T15:12:34;0.70;;;0.70;;
65769;SDS011;52512;47.650;8.578;2022-09-12T15:15:03;2.77;;;1.20;;
65769;SDS011;52512;47.650;8.578;2022-09-12T15:17:40;3.90;;;1.00;;
65769;SDS011;52512;47.650;8.578;2022-09-12T15:20:06;0.80;;;0.80;;
65769;SDS011;52512;47.650;8.578;2022-09-12T15:22:32;3.17;;;1.00;;
65769;SDS011;52512;47.650;8.578;2022-09-12T15:24:59;1.00;;;0.90;;
65769;SDS011;52512;47.650;8.578;2022-09-12T15:27:25;1.23;;;1.00;;
65769;SDS011;52512;47.650;8.578;2022-09-12T15:29:51;5.80;;;1.00;;
65769;SDS011;52512;47.650;8.578;2022-09-12T15:32:26;3.10;;;1.67;;
65769;SDS011;52512;47.650;8.578;2022-09-12T15:34:53;2.00;;;1.10;;
65769;SDS011;52512;47.650;8.578;2022-09-12T15:37:20;1.80;;;0.90;;
65769;SDS011;52512;47.650;8.578;2022-09-12T15:39:46;1.10;;;1.10;;
65769;SDS011;52512;47.650;8.578;2022-09-12T15:42:12;4.70;;;2.10;;
65769;SDS011;52512;47.650;8.578;2022-09-12T15:44:39;1.13;;;1.03;;
65769;SDS011;52512;47.650;8.578;2022-09-12T15:47:05;6.03;;;0.87;;
65769;SDS011;52512;47.650;8.578;2022-09-12T15:49:33;0.90;;;0.90;;
65769;SDS011;52512;47.650;8.578;2022-09-12T15:51:58;5.03;;;0.90;;
65769;SDS011;52512;47.650;8.578;2022-09-12T15:54:24;0.87;;;0.87;;
65769;SDS011;52512;47.650;8.578;2022-09-12T15:56:50;0.90;;;0.90;;
65769;SDS011;52512;47.650;8.578;2022-09-12T15:59:16;7.60;;;1.20;;
65769;SDS011;52512;47.650;8.578;2022-09-12T16:01:42;1.13;;;1.00;;
65769;SDS011;52512;47.650;8.578;2022-09-12T16:04:18;1.30;;;1.20;;
65769;SDS011;52512;47.650;8.578;2022-09-12T16:06:52;1.20;;;1.10;;
65769;SDS011;52512;47.650;8.578;2022-09-12T16:09:18;2.07;;;1.13;;
65769;SDS011;52512;47.650;8.578;2022-09-12T16:11:44;0.80;;;0.80;;
65769;SDS011;52512;47.650;8.578;2022-09-12T16:14:14;2.70;;;0.80;;
65769;SDS011;52512;47.650;8.578;2022-09-12T16:16:41;0.60;;;0.60;;
65769;SDS011;52512;47.650;8.578;2022-09-12T16:19:07;1.13;;;1.00;;
65769;SDS011;52512;47.650;8.578;2022-09-12T16:21:36;2.97;;;1.20;;
65769;SDS011;52512;47.650;8.578;2022-09-12T16:24:02;0.80;;;0.80;;
65769;SDS011;52512;47.650;8.578;2022-09-12T16:26:29;1.07;;;0.97;;
65769;SDS011;52512;47.650;8.578;2022-09-12T16:28:55;1.10;;;0.90;;
65769;SDS011;52512;47.650;8.578;2022-09-12T16:31:22;2.00;;;0.83;;
65769;SDS011;52512;47.650;8.578;2022-09-12T16:33:48;1.00;;;0.90;;
65769;SDS011;52512;47.650;8.578;2022-09-12T16:36:14;1.00;;;1.00;;
65769;SDS011;52512;47.650;8.578;2022-09-12T16:38:46;1.33;;;0.80;;
65769;SDS011;52512;47.650;8.578;2022-09-12T16:41:13;7.10;;;1.10;;
65769;SDS011;52512;47.650;8.578;2022-09-12T16:43:41;1.77;;;0.90;;
65769;SDS011;52512;47.650;8.578;2022-09-12T16:48:34;3.60;;;1.10;;
65769;SDS011;52512;47.650;8.578;2022-09-12T16:51:01;2.60;;;1.00;;
65769;SDS011;52512;47.650;8.578;2022-09-12T16:53:30;5.73;;;1.00;;
65769;SDS011;52512;47.650;8.578;2022-09-12T16:56:02;4.37;;;1.27;;
65769;SDS011;52512;47.650;8.578;2022-09-12T16:58:36;1.73;;;1.20;;
65769;SDS011;52512;47.650;8.578;2022-09-12T17:01:05;1.20;;;1.20;;
65769;SDS011;52512;47.650;8.578;2022-09-12T17:03:36;2.43;;;1.00;;
65769;SDS011;52512;47.650;8.578;2022-09-12T17:06:03;1.97;;;1.10;;
65769;SDS011;52512;47.650;8.578;2022-09-12T17:08:32;1.40;;;1.30;;
65769;SDS011;52512;47.650;8.578;2022-09-12T17:11:00;1.67;;;1.40;;
65769;SDS011;52512;47.650;8.578;2022-09-12T17:13:27;1.30;;;1.20;;
65769;SDS011;52512;47.650;8.578;2022-09-12T17:15:54;1.63;;;0.90;;
65769;SDS011;52512;47.650;8.578;2022-09-12T17:18:20;0.97;;;0.97;;
65769;SDS011;52512;47.650;8.578;2022-09-12T17:20:46;4.33;;;0.97;;
65769;SDS011;52512;47.650;8.578;2022-09-12T17:23:12;5.43;;;1.17;;
65769;SDS011;52512;47.650;8.578;2022-09-12T17:25:37;3.10;;;1.67;;
65769;SDS011;52512;47.650;8.578;2022-09-12T17:28:03;1.27;;;1.17;;
65769;SDS011;52512;47.650;8.578;2022-09-12T17:30:32;2.33;;;1.40;;
65769;SDS011;52512;47.650;8.578;2022-09-12T17:32:59;2.63;;;0.93;;
65769;SDS011;52512;47.650;8.578;2022-09-12T17:35:25;4.30;;;1.30;;